sensor_id;sensor_type;location;lat;lon;timestamp;P1;durP1;ratioP1;P2;durP2;ratioP2
58621;SDS011;44389;51.578;5.456;2023-05-19T00:00:20;28.67;;;17.65;;
58621;SDS011;44389;51.578;5.456;2023-05-19T00:02:45;22.73;;;16.80;;
58621;SDS011;44389;51.578;5.456;2023-05-19T00:05:11;21.67;;;16.02;;
58621;SDS011;44389;51.578;5.456;2023-05-19T00:07:39;28.98;;;17.42;;
58621;SDS011;44389;51.578;5.456;2023-05-19T00:10:07;23.50;;;17.13;;
58621;SDS011;44389;51.578;5.456;2023-05-19T00:12:33;25.23;;;16.88;;
58621;SDS011;44389;51.578;5.456;2023-05-19T00:15:00;24.20;;;16.37;;
58621;SDS011;44389;51.578;5.456;2023-05-19T00:17:26;25.45;;;16.27;;
58621;SDS011;44389;51.578;5.456;2023-05-19T00:19:51;24.42;;;15.25;;
58621;SDS011;44389;51.578;5.456;2023-05-19T00:22:18;22.70;;;16.50;;
58621;SDS011;44389;51.578;5.456;2023-05-19T00:24:43;24.85;;;15.60;;
58621;SDS011;44389;51.578;5.456;2023-05-19T00:27:09;27.05;;;16.85;;
58621;SDS011;44389;51.578;5.456;2023-05-19T00:29:34;28.10;;;17.02;;
58621;SDS011;44389;51.578;5.456;2023-05-19T00:32:00;28.13;;;16.23;;
58621;SDS011;44389;51.578;5.456;2023-05-19T00:34:25;24.95;;;16.30;;
58621;SDS011;44389;51.578;5.456;2023-05-19T00:36:50;24.42;;;15.77;;
58621;SDS011;44389;51.578;5.456;2023-05-19T00:39:16;23.30;;;16.20;;
58621;SDS011;44389;51.578;5.456;2023-05-19T00:41:41;23.85;;;16.05;;
58621;SDS011;44389;51.578;5.456;2023-05-19T00:44:06;30.10;;;16.60;;
58621;SDS011;44389;51.578;5.456;2023-05-19T00:46:31;22.67;;;15.10;;
58621;SDS011;44389;51.578;5.456;2023-05-19T00:48:57;27.23;;;15.23;;
58621;SDS011;44389;51.578;5.456;2023-05-19T00:51:23;24.50;;;15.35;;
58621;SDS011;44389;51.578;5.456;2023-05-19T00:53:50;22.77;;;15.60;;
58621;SDS011;44389;51.578;5.456;2023-05-19T00:56:16;23.23;;;14.30;;
58621;SDS011;44389;51.578;5.456;2023-05-19T00:58:42;21.00;;;14.23;;
58621;SDS011;44389;51.578;5.456;2023-05-19T01:01:08;25.17;;;13.93;;
58621;SDS011;44389;51.578;5.456;2023-05-19T01:03:33;23.65;;;13.95;;
58621;SDS011;44389;51.578;5.456;2023-05-19T01:06:00;23.92;;;13.02;;
58621;SDS011;44389;51.578;5.456;2023-05-19T01:08:29;22.55;;;13.48;;
58621;SDS011;44389;51.578;5.456;2023-05-19T01:10:55;20.13;;;13.27;;
58621;SDS011;44389;51.578;5.456;2023-05-19T01:13:21;25.05;;;13.93;;
58621;SDS011;44389;51.578;5.456;2023-05-19T01:18:46;24.65;;;13.90;;
58621;SDS011;44389;51.578;5.456;2023-05-19T01:21:38;22.25;;;14.68;;
58621;SDS011;44389;51.578;5.456;2023-05-19T01:27:08;28.35;;;13.75;;
58621;SDS011;44389;51.578;5.456;2023-05-19T01:29:41;22.13;;;13.23;;
58621;SDS011;44389;51.578;5.456;2023-05-19T01:32:19;22.45;;;13.77;;
58621;SDS011;44389;51.578;5.456;2023-05-19T01:34:47;24.15;;;13.93;;
58621;SDS011;44389;51.578;5.456;2023-05-19T01:37:14;25.75;;;13.40;;
58621;SDS011;44389;51.578;5.456;2023-05-19T01:39:41;25.35;;;15.40;;
58621;SDS011;44389;51.578;5.456;2023-05-19T01:42:08;22.67;;;14.33;;
58621;SDS011;44389;51.578;5.456;2023-05-19T01:44:35;23.23;;;13.68;;
58621;SDS011;44389;51.578;5.456;2023-05-19T01:47:01;24.83;;;14.30;;
58621;SDS011;44389;51.578;5.456;2023-05-19T01:49:27;21.83;;;12.57;;
58621;SDS011;44389;51.578;5.456;2023-05-19T01:51:53;19.15;;;13.85;;
58621;SDS011;44389;51.578;5.456;2023-05-19T01:54:18;18.98;;;13.70;;
58621;SDS011;44389;51.578;5.456;2023-05-19T01:57:03;18.70;;;13.65;;
58621;SDS011;44389;51.578;5.456;2023-05-19T02:02:12;25.88;;;15.20;;
58621;SDS011;44389;51.578;5.456;2023-05-19T02:05:21;20.00;;;13.65;;
58621;SDS011;44389;51.578;5.456;2023-05-19T02:08:02;22.30;;;14.25;;
58621;SDS011;44389;51.578;5.456;2023-05-19T02:10:35;20.83;;;13.50;;
58621;SDS011;44389;51.578;5.456;2023-05-19T02:13:04;21.00;;;13.40;;
58621;SDS011;44389;51.578;5.456;2023-05-19T02:15:41;21.08;;;14.07;;
58621;SDS011;44389;51.578;5.456;2023-05-19T02:18:09;25.33;;;14.38;;
58621;SDS011;44389;51.578;5.456;2023-05-19T02:20:36;21.48;;;14.60;;
58621;SDS011;44389;51.578;5.456;2023-05-19T02:23:02;21.00;;;14.95;;
58621;SDS011;44389;51.578;5.456;2023-05-19T02:25:28;25.08;;;14.70;;
58621;SDS011;44389;51.578;5.456;2023-05-19T02:27:53;19.90;;;14.85;;
58621;SDS011;44389;51.578;5.456;2023-05-19T02:30:18;23.92;;;14.65;;
58621;SDS011;44389;51.578;5.456;2023-05-19T02:32:43;24.92;;;15.15;;
58621;SDS011;44389;51.578;5.456;2023-05-19T02:35:10;24.42;;;15.98;;
58621;SDS011;44389;51.578;5.456;2023-05-19T02:37:36;24.23;;;15.18;;
58621;SDS011;44389;51.578;5.456;2023-05-19T02:40:01;22.33;;;14.68;;
58621;SDS011;44389;51.578;5.456;2023-05-19T02:42:26;24.30;;;16.30;;
58621;SDS011;44389;51.578;5.456;2023-05-19T02:44:53;23.55;;;14.98;;
58621;SDS011;44389;51.578;5.456;2023-05-19T02:47:18;26.13;;;15.00;;
58621;SDS011;44389;51.578;5.456;2023-05-19T02:49:43;23.98;;;15.77;;
58621;SDS011;44389;51.578;5.456;2023-05-19T02:52:09;22.38;;;14.45;;
58621;SDS011;44389;51.578;5.456;2023-05-19T02:54:34;26.45;;;14.93;;
58621;SDS011;44389;51.578;5.456;2023-05-19T02:57:00;25.52;;;15.90;;
58621;SDS011;44389;51.578;5.456;2023-05-19T02:59:25;21.15;;;14.88;;
58621;SDS011;44389;51.578;5.456;2023-05-19T03:01:54;24.05;;;15.57;;
58621;SDS011;44389;51.578;5.456;2023-05-19T03:04:20;22.05;;;15.05;;
58621;SDS011;44389;51.578;5.456;2023-05-19T03:06:45;26.08;;;15.20;;
58621;SDS011;44389;51.578;5.456;2023-05-19T03:09:11;20.95;;;15.10;;
58621;SDS011;44389;51.578;5.456;2023-05-19T03:11:40;24.63;;;16.38;;
58621;SDS011;44389;51.578;5.456;2023-05-19T03:14:05;22.90;;;15.77;;
58621;SDS011;44389;51.578;5.456;2023-05-19T03:16:33;25.38;;;15.63;;
58621;SDS011;44389;51.578;5.456;2023-05-19T03:18:58;26.00;;;15.25;;
58621;SDS011;44389;51.578;5.456;2023-05-19T03:21:24;26.60;;;15.45;;
58621;SDS011;44389;51.578;5.456;2023-05-19T03:23:49;21.38;;;15.25;;
58621;SDS011;44389;51.578;5.456;2023-05-19T03:26:15;24.17;;;15.48;;
58621;SDS011;44389;51.578;5.456;2023-05-19T03:28:40;25.15;;;15.77;;
58621;SDS011;44389;51.578;5.456;2023-05-19T03:31:05;23.98;;;15.38;;
58621;SDS011;44389;51.578;5.456;2023-05-19T03:33:31;25.88;;;16.08;;
58621;SDS011;44389;51.578;5.456;2023-05-19T03:35:56;21.83;;;15.60;;
58621;SDS011;44389;51.578;5.456;2023-05-19T03:38:21;23.35;;;15.40;;
58621;SDS011;44389;51.578;5.456;2023-05-19T03:40:47;23.83;;;15.68;;
58621;SDS011;44389;51.578;5.456;2023-05-19T03:43:12;23.33;;;17.08;;
58621;SDS011;44389;51.578;5.456;2023-05-19T03:45:38;26.77;;;16.58;;
58621;SDS011;44389;51.578;5.456;2023-05-19T03:48:03;23.33;;;15.95;;
58621;SDS011;44389;51.578;5.456;2023-05-19T03:50:29;22.55;;;16.27;;
58621;SDS011;44389;51.578;5.456;2023-05-19T03:52:55;23.92;;;15.40;;
58621;SDS011;44389;51.578;5.456;2023-05-19T03:55:21;26.05;;;15.63;;
58621;SDS011;44389;51.578;5.456;2023-05-19T03:57:46;23.38;;;15.95;;
58621;SDS011;44389;51.578;5.456;2023-05-19T04:00:12;23.42;;;15.52;;
58621;SDS011;44389;51.578;5.456;2023-05-19T04:02:38;24.40;;;16.15;;
58621;SDS011;44389;51.578;5.456;2023-05-19T04:05:04;19.13;;;15.38;;
58621;SDS011;44389;51.578;5.456;2023-05-19T04:07:31;23.95;;;16.23;;
58621;SDS011;44389;51.578;5.456;2023-05-19T04:09:56;28.75;;;17.50;;
58621;SDS011;44389;51.578;5.456;2023-05-19T04:12:22;24.60;;;17.17;;
58621;SDS011;44389;51.578;5.456;2023-05-19T04:14:47;27.65;;;17.42;;
58621;SDS011;44389;51.578;5.456;2023-05-19T04:17:13;26.77;;;17.35;;
58621;SDS011;44389;51.578;5.456;2023-05-19T04:19:38;24.27;;;17.38;;
58621;SDS011;44389;51.578;5.456;2023-05-19T04:22:04;23.58;;;16.92;;
58621;SDS011;44389;51.578;5.456;2023-05-19T04:24:30;24.45;;;16.90;;
58621;SDS011;44389;51.578;5.456;2023-05-19T04:26:55;22.85;;;16.33;;
58621;SDS011;44389;51.578;5.456;2023-05-19T04:29:20;22.55;;;16.55;;
58621;SDS011;44389;51.578;5.456;2023-05-19T04:31:47;23.80;;;17.02;;
58621;SDS011;44389;51.578;5.456;2023-05-19T04:34:13;25.63;;;16.88;;
58621;SDS011;44389;51.578;5.456;2023-05-19T04:36:38;23.98;;;17.60;;
58621;SDS011;44389;51.578;5.456;2023-05-19T04:39:03;24.95;;;16.83;;
58621;SDS011;44389;51.578;5.456;2023-05-19T04:41:32;25.55;;;17.60;;
58621;SDS011;44389;51.578;5.456;2023-05-19T04:43:58;27.20;;;18.13;;
58621;SDS011;44389;51.578;5.456;2023-05-19T04:46:24;26.85;;;18.52;;
58621;SDS011;44389;51.578;5.456;2023-05-19T04:48:50;26.05;;;18.48;;
58621;SDS011;44389;51.578;5.456;2023-05-19T04:51:17;26.63;;;17.42;;
58621;SDS011;44389;51.578;5.456;2023-05-19T04:53:43;29.60;;;18.05;;
58621;SDS011;44389;51.578;5.456;2023-05-19T04:56:09;25.75;;;18.38;;
58621;SDS011;44389;51.578;5.456;2023-05-19T04:58:37;25.05;;;18.30;;
58621;SDS011;44389;51.578;5.456;2023-05-19T05:01:02;27.23;;;18.15;;
58621;SDS011;44389;51.578;5.456;2023-05-19T05:03:28;27.30;;;18.58;;
58621;SDS011;44389;51.578;5.456;2023-05-19T05:05:54;26.25;;;19.00;;
58621;SDS011;44389;51.578;5.456;2023-05-19T05:08:20;27.17;;;18.70;;
58621;SDS011;44389;51.578;5.456;2023-05-19T05:10:50;26.35;;;18.33;;
58621;SDS011;44389;51.578;5.456;2023-05-19T05:13:17;28.45;;;18.92;;
58621;SDS011;44389;51.578;5.456;2023-05-19T05:15:46;24.65;;;17.60;;
58621;SDS011;44389;51.578;5.456;2023-05-19T05:18:12;25.40;;;17.70;;
58621;SDS011;44389;51.578;5.456;2023-05-19T05:20:39;27.65;;;18.42;;
58621;SDS011;44389;51.578;5.456;2023-05-19T05:23:05;27.60;;;17.98;;
58621;SDS011;44389;51.578;5.456;2023-05-19T05:27:58;24.48;;;16.42;;
58621;SDS011;44389;51.578;5.456;2023-05-19T05:30:28;28.17;;;17.83;;
58621;SDS011;44389;51.578;5.456;2023-05-19T05:32:54;24.60;;;17.42;;
58621;SDS011;44389;51.578;5.456;2023-05-19T05:35:19;23.65;;;16.55;;
58621;SDS011;44389;51.578;5.456;2023-05-19T05:40:12;23.37;;;15.23;;
58621;SDS011;44389;51.578;5.456;2023-05-19T05:42:38;22.25;;;14.38;;
58621;SDS011;44389;51.578;5.456;2023-05-19T05:45:03;23.17;;;13.90;;
58621;SDS011;44389;51.578;5.456;2023-05-19T05:47:29;19.80;;;13.90;;
58621;SDS011;44389;51.578;5.456;2023-05-19T05:49:55;17.80;;;13.40;;
58621;SDS011;44389;51.578;5.456;2023-05-19T05:52:20;20.23;;;14.00;;
58621;SDS011;44389;51.578;5.456;2023-05-19T05:54:49;18.77;;;13.00;;
58621;SDS011;44389;51.578;5.456;2023-05-19T05:57:15;17.67;;;13.32;;
58621;SDS011;44389;51.578;5.456;2023-05-19T05:59:40;23.15;;;13.57;;
58621;SDS011;44389;51.578;5.456;2023-05-19T06:02:07;19.52;;;11.93;;
58621;SDS011;44389;51.578;5.456;2023-05-19T06:04:32;19.42;;;12.73;;
58621;SDS011;44389;51.578;5.456;2023-05-19T06:06:57;19.25;;;12.77;;
58621;SDS011;44389;51.578;5.456;2023-05-19T06:09:25;19.45;;;11.85;;
58621;SDS011;44389;51.578;5.456;2023-05-19T06:11:51;15.15;;;11.40;;
58621;SDS011;44389;51.578;5.456;2023-05-19T06:14:16;18.45;;;12.18;;
58621;SDS011;44389;51.578;5.456;2023-05-19T06:16:42;20.45;;;11.00;;
58621;SDS011;44389;51.578;5.456;2023-05-19T06:19:07;20.08;;;11.52;;
58621;SDS011;44389;51.578;5.456;2023-05-19T06:21:33;21.13;;;11.43;;
58621;SDS011;44389;51.578;5.456;2023-05-19T06:23:59;19.50;;;11.68;;
58621;SDS011;44389;51.578;5.456;2023-05-19T06:26:24;18.67;;;11.02;;
58621;SDS011;44389;51.578;5.456;2023-05-19T06:28:50;15.43;;;10.52;;
58621;SDS011;44389;51.578;5.456;2023-05-19T06:31:16;15.23;;;10.73;;
58621;SDS011;44389;51.578;5.456;2023-05-19T06:33:41;14.77;;;10.98;;
58621;SDS011;44389;51.578;5.456;2023-05-19T06:36:06;20.38;;;10.05;;
58621;SDS011;44389;51.578;5.456;2023-05-19T06:38:33;19.38;;;10.68;;
58621;SDS011;44389;51.578;5.456;2023-05-19T06:40:59;16.20;;;9.63;;
58621;SDS011;44389;51.578;5.456;2023-05-19T06:43:24;15.68;;;10.73;;
58621;SDS011;44389;51.578;5.456;2023-05-19T06:45:50;19.63;;;9.93;;
58621;SDS011;44389;51.578;5.456;2023-05-19T06:48:15;15.90;;;10.02;;
58621;SDS011;44389;51.578;5.456;2023-05-19T06:50:40;17.33;;;9.75;;
58621;SDS011;44389;51.578;5.456;2023-05-19T06:53:05;17.60;;;9.27;;
58621;SDS011;44389;51.578;5.456;2023-05-19T06:55:31;14.25;;;9.68;;
58621;SDS011;44389;51.578;5.456;2023-05-19T06:57:56;15.63;;;9.00;;
58621;SDS011;44389;51.578;5.456;2023-05-19T07:00:22;15.27;;;9.40;;
58621;SDS011;44389;51.578;5.456;2023-05-19T07:02:47;17.25;;;9.10;;
58621;SDS011;44389;51.578;5.456;2023-05-19T07:05:12;12.90;;;8.75;;
58621;SDS011;44389;51.578;5.456;2023-05-19T07:07:37;16.35;;;9.27;;
58621;SDS011;44389;51.578;5.456;2023-05-19T07:10:03;13.77;;;8.85;;
58621;SDS011;44389;51.578;5.456;2023-05-19T07:12:28;14.63;;;9.15;;
58621;SDS011;44389;51.578;5.456;2023-05-19T07:14:54;14.63;;;8.75;;
58621;SDS011;44389;51.578;5.456;2023-05-19T07:17:19;16.17;;;8.38;;
58621;SDS011;44389;51.578;5.456;2023-05-19T07:19:45;15.38;;;8.45;;
58621;SDS011;44389;51.578;5.456;2023-05-19T07:22:10;11.52;;;7.90;;
58621;SDS011;44389;51.578;5.456;2023-05-19T07:24:35;16.58;;;8.57;;
58621;SDS011;44389;51.578;5.456;2023-05-19T07:27:00;13.90;;;8.40;;
58621;SDS011;44389;51.578;5.456;2023-05-19T07:29:26;13.55;;;7.70;;
58621;SDS011;44389;51.578;5.456;2023-05-19T07:31:51;17.92;;;7.75;;
58621;SDS011;44389;51.578;5.456;2023-05-19T07:34:21;15.13;;;8.20;;
58621;SDS011;44389;51.578;5.456;2023-05-19T07:36:47;15.93;;;7.65;;
58621;SDS011;44389;51.578;5.456;2023-05-19T07:39:12;14.20;;;6.78;;
58621;SDS011;44389;51.578;5.456;2023-05-19T07:41:37;9.82;;;6.40;;
58621;SDS011;44389;51.578;5.456;2023-05-19T07:44:03;16.88;;;6.20;;
58621;SDS011;44389;51.578;5.456;2023-05-19T07:46:31;14.80;;;7.38;;
58621;SDS011;44389;51.578;5.456;2023-05-19T07:48:57;12.52;;;6.15;;
58621;SDS011;44389;51.578;5.456;2023-05-19T07:51:22;14.82;;;5.80;;
58621;SDS011;44389;51.578;5.456;2023-05-19T07:53:48;10.77;;;5.22;;
58621;SDS011;44389;51.578;5.456;2023-05-19T07:56:13;12.52;;;5.72;;
58621;SDS011;44389;51.578;5.456;2023-05-19T07:58:38;11.90;;;5.50;;
58621;SDS011;44389;51.578;5.456;2023-05-19T08:01:03;14.80;;;6.00;;
58621;SDS011;44389;51.578;5.456;2023-05-19T08:03:29;10.43;;;5.10;;
58621;SDS011;44389;51.578;5.456;2023-05-19T08:05:54;11.07;;;4.90;;
58621;SDS011;44389;51.578;5.456;2023-05-19T08:08:20;12.85;;;5.75;;
58621;SDS011;44389;51.578;5.456;2023-05-19T08:10:45;12.52;;;5.63;;
58621;SDS011;44389;51.578;5.456;2023-05-19T08:13:11;10.88;;;5.05;;
58621;SDS011;44389;51.578;5.456;2023-05-19T08:15:36;12.18;;;5.40;;
58621;SDS011;44389;51.578;5.456;2023-05-19T08:18:02;12.48;;;5.18;;
58621;SDS011;44389;51.578;5.456;2023-05-19T08:20:29;9.52;;;4.20;;
58621;SDS011;44389;51.578;5.456;2023-05-19T08:22:55;11.23;;;4.95;;
58621;SDS011;44389;51.578;5.456;2023-05-19T08:25:21;12.63;;;5.43;;
58621;SDS011;44389;51.578;5.456;2023-05-19T08:27:46;11.30;;;5.13;;
58621;SDS011;44389;51.578;5.456;2023-05-19T08:30:12;9.95;;;5.00;;
58621;SDS011;44389;51.578;5.456;2023-05-19T08:32:37;11.85;;;5.05;;
58621;SDS011;44389;51.578;5.456;2023-05-19T08:35:02;12.07;;;5.00;;
58621;SDS011;44389;51.578;5.456;2023-05-19T08:37:28;11.93;;;4.75;;
58621;SDS011;44389;51.578;5.456;2023-05-19T08:39:53;11.40;;;5.00;;
58621;SDS011;44389;51.578;5.456;2023-05-19T08:42:18;12.75;;;5.00;;
58621;SDS011;44389;51.578;5.456;2023-05-19T08:44:44;10.57;;;4.55;;
58621;SDS011;44389;51.578;5.456;2023-05-19T08:47:09;10.15;;;3.70;;
58621;SDS011;44389;51.578;5.456;2023-05-19T08:49:42;10.68;;;4.22;;
58621;SDS011;44389;51.578;5.456;2023-05-19T08:52:26;8.40;;;3.88;;
58621;SDS011;44389;51.578;5.456;2023-05-19T08:55:08;9.02;;;3.92;;
58621;SDS011;44389;51.578;5.456;2023-05-19T08:57:37;11.27;;;4.05;;
58621;SDS011;44389;51.578;5.456;2023-05-19T09:00:02;8.75;;;3.97;;
58621;SDS011;44389;51.578;5.456;2023-05-19T09:02:38;9.90;;;4.38;;
58621;SDS011;44389;51.578;5.456;2023-05-19T09:05:04;9.15;;;3.58;;
58621;SDS011;44389;51.578;5.456;2023-05-19T09:07:31;9.57;;;3.17;;
58621;SDS011;44389;51.578;5.456;2023-05-19T09:09:59;10.38;;;3.40;;
58621;SDS011;44389;51.578;5.456;2023-05-19T09:12:25;9.88;;;3.05;;
58621;SDS011;44389;51.578;5.456;2023-05-19T09:14:51;8.40;;;2.40;;
58621;SDS011;44389;51.578;5.456;2023-05-19T09:17:17;9.63;;;2.53;;
58621;SDS011;44389;51.578;5.456;2023-05-19T09:19:45;8.05;;;2.30;;
58621;SDS011;44389;51.578;5.456;2023-05-19T09:22:13;7.95;;;2.30;;
58621;SDS011;44389;51.578;5.456;2023-05-19T09:24:39;9.02;;;2.20;;
58621;SDS011;44389;51.578;5.456;2023-05-19T09:27:05;7.88;;;2.28;;
58621;SDS011;44389;51.578;5.456;2023-05-19T09:29:30;7.40;;;2.08;;
58621;SDS011;44389;51.578;5.456;2023-05-19T09:31:56;6.97;;;2.10;;
58621;SDS011;44389;51.578;5.456;2023-05-19T09:34:25;8.60;;;2.38;;
58621;SDS011;44389;51.578;5.456;2023-05-19T09:36:51;8.75;;;2.78;;
58621;SDS011;44389;51.578;5.456;2023-05-19T09:39:18;9.87;;;2.53;;
58621;SDS011;44389;51.578;5.456;2023-05-19T09:41:45;9.60;;;2.75;;
58621;SDS011;44389;51.578;5.456;2023-05-19T09:44:11;6.40;;;2.38;;
58621;SDS011;44389;51.578;5.456;2023-05-19T09:46:57;7.53;;;2.30;;
58621;SDS011;44389;51.578;5.456;2023-05-19T09:49:27;9.70;;;2.90;;
58621;SDS011;44389;51.578;5.456;2023-05-19T09:51:54;8.55;;;3.17;;
58621;SDS011;44389;51.578;5.456;2023-05-19T09:54:21;8.15;;;3.03;;
58621;SDS011;44389;51.578;5.456;2023-05-19T09:57:01;8.65;;;2.83;;
58621;SDS011;44389;51.578;5.456;2023-05-19T09:59:28;10.00;;;3.00;;
58621;SDS011;44389;51.578;5.456;2023-05-19T10:01:55;7.90;;;2.50;;
58621;SDS011;44389;51.578;5.456;2023-05-19T10:04:22;7.57;;;2.47;;
58621;SDS011;44389;51.578;5.456;2023-05-19T10:06:49;6.95;;;2.30;;
58621;SDS011;44389;51.578;5.456;2023-05-19T10:09:21;7.20;;;2.10;;
58621;SDS011;44389;51.578;5.456;2023-05-19T10:11:51;9.63;;;2.33;;
58621;SDS011;44389;51.578;5.456;2023-05-19T10:14:18;7.88;;;2.50;;
58621;SDS011;44389;51.578;5.456;2023-05-19T10:16:47;7.03;;;2.38;;
58621;SDS011;44389;51.578;5.456;2023-05-19T10:19:21;7.07;;;2.15;;
58621;SDS011;44389;51.578;5.456;2023-05-19T10:21:53;8.85;;;2.15;;
58621;SDS011;44389;51.578;5.456;2023-05-19T10:24:19;8.10;;;2.40;;
58621;SDS011;44389;51.578;5.456;2023-05-19T10:26:48;8.70;;;2.80;;
58621;SDS011;44389;51.578;5.456;2023-05-19T10:29:27;6.68;;;2.33;;
58621;SDS011;44389;51.578;5.456;2023-05-19T10:31:56;6.82;;;2.50;;
58621;SDS011;44389;51.578;5.456;2023-05-19T10:40:04;9.57;;;2.60;;
58621;SDS011;44389;51.578;5.456;2023-05-19T10:42:49;7.70;;;2.53;;
58621;SDS011;44389;51.578;5.456;2023-05-19T10:45:17;8.23;;;2.83;;
58621;SDS011;44389;51.578;5.456;2023-05-19T10:47:46;8.77;;;2.50;;
58621;SDS011;44389;51.578;5.456;2023-05-19T10:50:11;9.20;;;2.90;;
58621;SDS011;44389;51.578;5.456;2023-05-19T10:52:37;7.88;;;2.70;;
58621;SDS011;44389;51.578;5.456;2023-05-19T10:55:06;8.07;;;2.83;;
58621;SDS011;44389;51.578;5.456;2023-05-19T10:57:32;7.72;;;2.60;;
58621;SDS011;44389;51.578;5.456;2023-05-19T10:59:58;7.82;;;2.47;;
58621;SDS011;44389;51.578;5.456;2023-05-19T11:02:37;12.50;;;3.27;;
58621;SDS011;44389;51.578;5.456;2023-05-19T11:05:14;8.38;;;2.85;;
58621;SDS011;44389;51.578;5.456;2023-05-19T11:07:55;11.57;;;2.85;;
58621;SDS011;44389;51.578;5.456;2023-05-19T11:10:26;10.43;;;2.70;;
58621;SDS011;44389;51.578;5.456;2023-05-19T11:12:51;9.18;;;2.65;;
58621;SDS011;44389;51.578;5.456;2023-05-19T11:15:16;6.50;;;2.57;;
58621;SDS011;44389;51.578;5.456;2023-05-19T11:17:47;9.82;;;2.67;;
58621;SDS011;44389;51.578;5.456;2023-05-19T11:23:08;8.35;;;2.67;;
58621;SDS011;44389;51.578;5.456;2023-05-19T11:28:18;7.93;;;2.40;;
58621;SDS011;44389;51.578;5.456;2023-05-19T11:33:14;11.32;;;2.58;;
58621;SDS011;44389;51.578;5.456;2023-05-19T11:35:43;8.93;;;2.50;;
58621;SDS011;44389;51.578;5.456;2023-05-19T11:38:10;6.78;;;2.45;;
58621;SDS011;44389;51.578;5.456;2023-05-19T11:40:37;8.48;;;2.75;;
58621;SDS011;44389;51.578;5.456;2023-05-19T11:43:02;11.50;;;4.90;;
58621;SDS011;44389;51.578;5.456;2023-05-19T11:45:28;10.63;;;2.60;;
58621;SDS011;44389;51.578;5.456;2023-05-19T11:47:55;11.02;;;2.47;;
58621;SDS011;44389;51.578;5.456;2023-05-19T11:50:22;6.28;;;2.33;;
58621;SDS011;44389;51.578;5.456;2023-05-19T11:52:49;8.85;;;2.22;;
58621;SDS011;44389;51.578;5.456;2023-05-19T11:55:15;9.98;;;2.78;;
58621;SDS011;44389;51.578;5.456;2023-05-19T11:57:49;7.53;;;2.07;;
58621;SDS011;44389;51.578;5.456;2023-05-19T12:00:24;7.50;;;2.60;;
58621;SDS011;44389;51.578;5.456;2023-05-19T12:02:50;7.15;;;2.38;;
58621;SDS011;44389;51.578;5.456;2023-05-19T12:05:17;6.10;;;2.20;;
58621;SDS011;44389;51.578;5.456;2023-05-19T12:07:46;11.75;;;2.35;;
58621;SDS011;44389;51.578;5.456;2023-05-19T12:10:15;7.65;;;2.55;;
58621;SDS011;44389;51.578;5.456;2023-05-19T12:12:40;8.23;;;2.28;;
58621;SDS011;44389;51.578;5.456;2023-05-19T12:15:06;8.20;;;2.10;;
58621;SDS011;44389;51.578;5.456;2023-05-19T12:17:32;7.50;;;2.47;;
58621;SDS011;44389;51.578;5.456;2023-05-19T12:19:58;7.50;;;2.03;;
58621;SDS011;44389;51.578;5.456;2023-05-19T12:22:25;6.72;;;2.10;;
58621;SDS011;44389;51.578;5.456;2023-05-19T12:24:51;6.60;;;2.10;;
58621;SDS011;44389;51.578;5.456;2023-05-19T12:29:41;6.78;;;2.47;;
58621;SDS011;44389;51.578;5.456;2023-05-19T12:32:07;9.20;;;2.50;;
58621;SDS011;44389;51.578;5.456;2023-05-19T12:34:36;7.63;;;2.10;;
58621;SDS011;44389;51.578;5.456;2023-05-19T12:37:03;7.28;;;2.25;;
58621;SDS011;44389;51.578;5.456;2023-05-19T12:39:29;6.90;;;2.00;;
58621;SDS011;44389;51.578;5.456;2023-05-19T12:42:06;5.68;;;2.15;;
58621;SDS011;44389;51.578;5.456;2023-05-19T12:44:36;8.82;;;2.42;;
58621;SDS011;44389;51.578;5.456;2023-05-19T12:47:03;7.45;;;2.38;;
58621;SDS011;44389;51.578;5.456;2023-05-19T12:49:29;6.15;;;2.40;;
58621;SDS011;44389;51.578;5.456;2023-05-19T12:51:55;7.57;;;2.45;;
58621;SDS011;44389;51.578;5.456;2023-05-19T12:54:20;12.88;;;3.08;;
58621;SDS011;44389;51.578;5.456;2023-05-19T12:56:49;8.05;;;2.65;;
58621;SDS011;44389;51.578;5.456;2023-05-19T12:59:22;6.72;;;2.47;;
58621;SDS011;44389;51.578;5.456;2023-05-19T13:01:54;6.95;;;2.05;;
58621;SDS011;44389;51.578;5.456;2023-05-19T13:04:25;7.30;;;2.30;;
58621;SDS011;44389;51.578;5.456;2023-05-19T13:06:52;8.43;;;2.47;;
58621;SDS011;44389;51.578;5.456;2023-05-19T13:09:18;9.57;;;2.53;;
58621;SDS011;44389;51.578;5.456;2023-05-19T13:11:45;5.75;;;2.35;;
58621;SDS011;44389;51.578;5.456;2023-05-19T13:14:18;7.60;;;2.22;;
58621;SDS011;44389;51.578;5.456;2023-05-19T13:16:46;8.35;;;2.33;;
58621;SDS011;44389;51.578;5.456;2023-05-19T13:19:16;5.90;;;2.20;;
58621;SDS011;44389;51.578;5.456;2023-05-19T13:21:43;10.93;;;3.00;;
58621;SDS011;44389;51.578;5.456;2023-05-19T13:24:11;5.38;;;2.17;;
58621;SDS011;44389;51.578;5.456;2023-05-19T13:26:36;7.85;;;2.38;;
58621;SDS011;44389;51.578;5.456;2023-05-19T13:29:01;8.63;;;2.47;;
58621;SDS011;44389;51.578;5.456;2023-05-19T13:31:27;7.90;;;2.65;;
58621;SDS011;44389;51.578;5.456;2023-05-19T13:33:52;10.85;;;2.65;;
58621;SDS011;44389;51.578;5.456;2023-05-19T13:36:18;7.32;;;2.40;;
58621;SDS011;44389;51.578;5.456;2023-05-19T13:38:43;8.20;;;2.47;;
58621;SDS011;44389;51.578;5.456;2023-05-19T13:41:08;10.85;;;2.47;;
58621;SDS011;44389;51.578;5.456;2023-05-19T13:43:33;6.45;;;2.45;;
58621;SDS011;44389;51.578;5.456;2023-05-19T13:45:59;9.82;;;2.65;;
58621;SDS011;44389;51.578;5.456;2023-05-19T13:48:24;6.43;;;2.22;;
58621;SDS011;44389;51.578;5.456;2023-05-19T13:50:50;8.88;;;2.40;;
58621;SDS011;44389;51.578;5.456;2023-05-19T13:53:18;9.48;;;2.78;;
58621;SDS011;44389;51.578;5.456;2023-05-19T13:55:43;9.63;;;2.63;;
58621;SDS011;44389;51.578;5.456;2023-05-19T13:58:08;9.65;;;2.70;;
58621;SDS011;44389;51.578;5.456;2023-05-19T14:00:35;9.23;;;2.88;;
58621;SDS011;44389;51.578;5.456;2023-05-19T14:03:00;8.52;;;2.33;;
58621;SDS011;44389;51.578;5.456;2023-05-19T14:05:26;8.38;;;2.65;;
58621;SDS011;44389;51.578;5.456;2023-05-19T14:07:52;10.52;;;2.75;;
58621;SDS011;44389;51.578;5.456;2023-05-19T14:10:18;7.45;;;2.38;;
58621;SDS011;44389;51.578;5.456;2023-05-19T14:12:43;7.40;;;2.50;;
58621;SDS011;44389;51.578;5.456;2023-05-19T14:15:09;8.93;;;2.53;;
58621;SDS011;44389;51.578;5.456;2023-05-19T14:17:34;8.15;;;2.78;;
58621;SDS011;44389;51.578;5.456;2023-05-19T14:20:00;7.55;;;2.42;;
58621;SDS011;44389;51.578;5.456;2023-05-19T14:22:25;8.05;;;2.50;;
58621;SDS011;44389;51.578;5.456;2023-05-19T14:24:51;8.40;;;2.72;;
58621;SDS011;44389;51.578;5.456;2023-05-19T14:27:16;7.57;;;2.40;;
58621;SDS011;44389;51.578;5.456;2023-05-19T14:29:41;6.77;;;2.63;;
58621;SDS011;44389;51.578;5.456;2023-05-19T14:32:07;7.55;;;2.40;;
58621;SDS011;44389;51.578;5.456;2023-05-19T14:34:32;9.97;;;2.87;;
58621;SDS011;44389;51.578;5.456;2023-05-19T14:36:59;8.73;;;2.47;;
58621;SDS011;44389;51.578;5.456;2023-05-19T14:39:24;10.30;;;2.72;;
58621;SDS011;44389;51.578;5.456;2023-05-19T14:41:50;8.40;;;2.33;;
58621;SDS011;44389;51.578;5.456;2023-05-19T14:44:16;10.45;;;2.97;;
58621;SDS011;44389;51.578;5.456;2023-05-19T14:46:42;8.93;;;2.83;;
58621;SDS011;44389;51.578;5.456;2023-05-19T14:49:07;8.70;;;3.00;;
58621;SDS011;44389;51.578;5.456;2023-05-19T14:51:32;12.20;;;2.97;;
58621;SDS011;44389;51.578;5.456;2023-05-19T14:53:58;7.65;;;3.15;;
58621;SDS011;44389;51.578;5.456;2023-05-19T14:56:24;10.43;;;3.20;;
58621;SDS011;44389;51.578;5.456;2023-05-19T14:58:50;8.40;;;2.85;;
58621;SDS011;44389;51.578;5.456;2023-05-19T15:01:15;9.18;;;3.20;;